Cleveland, Ohio
Traffic Map
Current Weather Conditions
Cleveland, Ohio
Clear
Clear
27°
Feels Like: 29°
Wind Chill: 27° Ceiling: Unl
Heat Index: 29° Visibility: 10mi
Dew Point: 22° Wind: 12mph
Humidity: 74% Direction: 160° (SSE)
Pressure: 29.92in Gusts: 0mph
Raw Report DataKBKL 250553Z AUTO 16010KT 10SM CLR 27/22 A2992 RMK AO2 SLP128 T02670217 10289 20267 55005
Traffic Incident Summary
Active as of:
Severity:
Category:
InformationThere was an issue retrieving the traffic information for this location. Please try a different location or try again shortly.
Advertisements
Track Severe Weather on mobile